Time;durP1;ratioP1;P1;durP2;ratioP2;P2;SDS_P1;SDS_P2;PMS_P1;PMS_P2;Temp;Humidity;BMP_temperature;BMP_pressure;BME280_temperature;BME280_humidity;BME280_pressure;Samples;Min_cycle;Max_cycle;Signal;HPM_P1;HPM_P2
2022/03/06 00:00:14;;;;;;;;;93.00;67.67;;;;;9.06;64.42;101405.25;5071788;28;45313;-54
2022/03/06 00:02:40;;;;;;;;;85.67;64.00;;;;;8.97;64.46;101405.50;5056334;28;45313;-49
2022/03/06 00:05:05;;;;;;;;;92.50;71.00;;;;;8.95;64.11;101402.97;5055249;28;45559;-50
2022/03/06 00:07:31;;;;;;;;;90.00;68.00;;;;;8.95;63.99;101402.97;5055802;28;45749;-50
2022/03/06 00:09:56;;;;;;;;;94.00;72.00;;;;;8.92;64.52;101404.16;5055518;28;45375;-51
2022/03/06 00:12:22;;;;;;;;;86.33;64.00;;;;;8.84;64.46;101403.38;5054600;28;45407;-53
2022/03/06 00:14:47;;;;;;;;;95.00;73.00;;;;;8.64;64.42;101371.91;5055216;28;46216;-50
2022/03/06 00:17:13;;;;;;;;;91.00;68.33;;;;;8.89;64.10;101412.78;5055783;28;45468;-52
2022/03/06 00:19:39;;;;;;;;;91.33;66.00;;;;;8.97;64.26;101408.25;5055493;28;45372;-52
2022/03/06 00:22:04;;;;;;;;;92.33;68.67;;;;;8.87;63.96;101389.34;5054368;28;45568;-54
2022/03/06 00:24:29;;;;;;;;;94.33;67.67;;;;;8.78;64.06;101405.84;5055337;28;45906;-53
2022/03/06 00:26:55;;;;;;;;;93.00;70.00;;;;;8.72;63.67;101419.41;5022966;28;45362;-52
2022/03/06 00:29:21;;;;;;;;;91.67;71.67;;;;;8.64;63.82;101410.22;5071004;28;45327;-48
2022/03/06 00:31:46;;;;;;;;;88.33;64.00;;;;;8.74;63.94;101423.66;5054836;28;45725;-50
2022/03/06 00:34:12;;;;;;;;;81.00;60.33;;;;;8.55;63.56;101375.75;5055080;28;46414;-53
2022/03/06 00:36:37;;;;;;;;;88.00;68.00;;;;;8.77;63.46;101414.22;5055261;28;45344;-53
2022/03/06 00:39:04;;;;;;;;;88.67;65.67;;;;;8.74;63.43;101426.41;5070906;28;45440;-54
2022/03/06 00:41:29;;;;;;;;;93.67;73.00;;;;;8.77;63.48;101417.84;5055658;28;45422;-53
2022/03/06 00:43:55;;;;;;;;;86.67;64.33;;;;;8.78;62.79;101408.59;5053189;28;45397;-51
2022/03/06 00:46:20;;;;;;;;;88.67;66.33;;;;;8.81;63.09;101419.16;5053439;28;45609;-52
2022/03/06 00:48:46;;;;;;;;;86.67;64.00;;;;;8.84;62.71;101414.34;5055048;28;45386;-52
2022/03/06 00:51:14;;;;;;;;;88.67;64.00;;;;;8.60;61.83;101375.19;5054111;28;45801;-52
2022/03/06 00:53:40;;;;;;;;;83.00;62.33;;;;;8.52;62.00;101374.22;5053252;28;45444;-56
2022/03/06 00:56:06;;;;;;;;;88.33;64.00;;;;;8.70;60.82;101416.00;5054518;28;45365;-50
2022/03/06 00:58:31;;;;;;;;;83.75;62.50;;;;;8.61;60.73;101421.56;5053258;28;45486;-50
2022/03/06 01:00:57;;;;;;;;;87.33;65.67;;;;;8.45;60.67;101394.25;5054830;28;45228;-53
2022/03/06 01:03:22;;;;;;;;;78.00;63.00;;;;;8.44;60.14;101409.84;5053332;28;46520;-54
2022/03/06 01:05:48;;;;;;;;;86.00;65.33;;;;;8.45;59.83;101413.41;5052727;28;45410;-50
2022/03/06 01:08:14;;;;;;;;;86.00;65.00;;;;;8.45;60.30;101413.41;5053289;28;45259;-51
2022/03/06 01:10:41;;;;;;;;;80.00;61.33;;;;;8.51;60.96;101418.16;5054774;28;45415;-51
2022/03/06 01:13:07;;;;;;;;;89.00;63.67;;;;;8.43;60.18;101393.59;5054343;28;46194;-53
2022/03/06 01:15:33;;;;;;;;;80.00;61.33;;;;;8.54;59.64;101423.31;5052736;28;45457;-49
2022/03/06 01:17:59;;;;;;;;;87.67;63.00;;;;;8.58;59.48;101418.31;5054624;28;45282;-50
2022/03/06 01:20:25;;;;;;;;;85.33;64.33;;;;;8.57;59.27;101419.34;5054746;28;45476;-50
2022/03/06 01:22:51;;;;;;;;;80.00;62.00;;;;;8.40;59.25;101400.28;5053874;28;45349;-52
2022/03/06 01:25:16;;;;;;;;;78.00;61.75;;;;;8.44;58.77;101417.19;5036322;28;45764;-54
2022/03/06 01:27:42;;;;;;;;;79.75;58.50;;;;;8.46;59.23;101420.56;5053281;28;45343;-54
2022/03/06 01:30:09;;;;;;;;;82.00;60.00;;;;;8.31;58.06;101415.06;5053083;28;45564;-51
2022/03/06 01:32:34;;;;;;;;;80.33;62.00;;;;;8.12;59.22;101382.50;5069586;28;47743;-50
2022/03/06 01:35:00;;;;;;;;;80.00;63.00;;;;;8.37;58.49;101422.50;5054108;28;45330;-51
2022/03/06 01:37:26;;;;;;;;;82.50;61.00;;;;;8.24;57.78;101417.66;5053117;28;45344;-52
2022/03/06 01:39:51;;;;;;;;;84.67;63.33;;;;;7.98;58.71;101396.94;5036296;28;45441;-55
2022/03/06 01:42:17;;;;;;;;;87.33;65.67;;;;;8.18;58.41;101415.63;5053607;28;45368;-51
2022/03/06 01:44:46;;;;;;;;;79.67;57.67;;;;;7.91;58.31;101395.94;5056268;28;45499;-52
2022/03/06 01:47:12;;;;;;;;;80.67;60.00;;;;;7.52;59.02;101335.66;5056511;28;45402;-55
2022/03/06 01:49:37;;;;;;;;;80.33;61.33;;;;;8.00;58.31;101423.06;5056710;28;45312;-53
2022/03/06 01:52:03;;;;;;;;;89.67;67.00;;;;;7.97;58.00;101423.44;5057345;28;46920;-58
2022/03/06 01:54:29;;;;;;;;;81.33;61.67;;;;;7.93;58.35;101424.81;5056365;28;45577;-51
2022/03/06 01:56:54;;;;;;;;;78.33;59.33;;;;;7.90;57.60;101422.41;5057908;28;45230;-50
2022/03/06 01:59:20;;;;;;;;;81.33;63.67;;;;;7.97;57.86;101420.69;5056926;28;45449;-51
2022/03/06 02:01:45;;;;;;;;;82.33;63.67;;;;;7.90;57.26;101395.06;5022827;28;46465;-52
2022/03/06 02:04:11;;;;;;;;;79.67;60.33;;;;;7.95;57.53;101420.00;5056211;28;45401;-50
2022/03/06 02:06:38;;;;;;;;;79.00;62.67;;;;;7.88;57.70;101429.94;5057128;28;45333;-51
2022/03/06 02:09:04;;;;;;;;;82.25;63.25;;;;;7.85;57.45;101424.84;5057772;28;45381;-52
2022/03/06 02:11:29;;;;;;;;;79.00;63.00;;;;;7.69;57.17;101418.41;5057586;28;45382;-51
2022/03/06 02:13:55;;;;;;;;;77.67;59.00;;;;;7.65;57.27;101422.53;5026660;28;45777;-51
2022/03/06 02:16:20;;;;;;;;;82.33;61.00;;;;;7.73;57.52;101422.50;5053286;28;45510;-53
2022/03/06 02:18:46;;;;;;;;;82.75;62.00;;;;;7.54;57.01;101385.53;5057748;28;45415;-54
2022/03/06 02:21:12;;;;;;;;;79.67;61.33;;;;;7.36;56.86;101369.34;5057121;28;46616;-54
2022/03/06 02:23:38;;;;;;;;;81.67;60.33;;;;;7.56;57.20;101416.22;5056958;28;45342;-50
2022/03/06 02:26:04;;;;;;;;;83.67;63.67;;;;;7.07;57.16;101357.13;5057329;28;45433;-53
2022/03/06 02:28:29;;;;;;;;;78.00;58.67;;;;;7.38;57.07;101411.00;5056110;28;45335;-55
2022/03/06 02:30:55;;;;;;;;;79.50;60.50;;;;;7.27;57.30;101414.91;5056714;28;45373;-51
2022/03/06 02:33:21;;;;;;;;;82.67;60.00;;;;;7.27;57.96;101428.56;5055667;28;45375;-50
2022/03/06 02:35:46;;;;;;;;;87.00;64.00;;;;;7.27;57.18;101423.09;5038759;28;45344;-54
2022/03/06 02:38:12;;;;;;;;;79.67;61.33;;;;;7.31;57.32;101405.38;5057341;28;45396;-51
2022/03/06 02:40:38;;;;;;;;;81.33;60.67;;;;;7.31;57.40;101420.91;5056593;28;45464;-55
2022/03/06 02:43:05;;;;;;;;;83.33;61.00;;;;;7.27;57.91;101425.00;5055752;28;45506;-58
2022/03/06 02:45:30;;;;;;;;;78.67;62.00;;;;;7.25;58.06;101413.41;5055524;28;45458;-55
2022/03/06 02:47:56;;;;;;;;;83.00;59.67;;;;;7.30;58.30;101411.00;5056806;28;45373;-50
2022/03/06 02:50:32;;;;;;;;;81.67;60.33;;;;;7.35;57.59;101403.13;5056658;28;46214;-53
2022/03/06 02:52:58;;;;;;;;;82.33;63.33;;;;;7.12;58.18;101403.88;5056200;28;45556;-51
2022/03/06 02:55:23;;;;;;;;;85.00;61.00;;;;;6.89;57.06;101377.28;5057049;28;45284;-50
2022/03/06 02:57:49;;;;;;;;;79.33;61.33;;;;;7.04;57.77;101421.09;5056783;28;45503;-51
2022/03/06 03:00:17;;;;;;;;;75.00;58.00;;;;;6.92;57.56;101417.00;5056478;28;46087;-51
2022/03/06 03:02:42;;;;;;;;;76.33;59.33;;;;;6.96;57.88;101414.78;5038861;28;45522;-52
2022/03/06 03:05:10;;;;;;;;;77.00;59.67;;;;;7.02;57.83;101423.16;5056463;28;45330;-52
2022/03/06 03:07:46;;;;;;;;;81.00;63.33;;;;;6.96;57.79;101421.13;5056599;28;45341;-52
2022/03/06 03:10:13;;;;;;;;;80.67;61.33;;;;;6.87;57.89;101417.53;5038499;28;45856;-50
2022/03/06 03:12:39;;;;;;;;;82.00;62.67;;;;;6.73;58.55;101420.94;5056585;28;45367;-50
2022/03/06 03:15:05;;;;;;;;;81.33;62.67;;;;;6.58;58.69;101421.63;5044868;28;45374;-54
2022/03/06 03:17:30;;;;;;;;;77.00;58.67;;;;;6.53;59.11;101406.78;5042687;28;45376;-56
2022/03/06 03:19:56;;;;;;;;;79.33;57.67;;;;;6.72;58.60;101419.25;5056127;28;46016;-52
2022/03/06 03:22:21;;;;;;;;;79.00;61.00;;;;;6.77;58.73;101420.44;5056549;28;45512;-54
2022/03/06 03:24:47;;;;;;;;;72.33;57.00;;;;;6.83;58.46;101421.63;5089171;27;45385;-52
2022/03/06 03:27:12;;;;;;;;;81.33;59.00;;;;;6.84;58.02;101423.31;5056800;28;46122;-54
2022/03/06 03:29:38;;;;;;;;;81.67;62.00;;;;;6.83;57.37;101418.88;5056261;28;45700;-51
2022/03/06 03:32:04;;;;;;;;;85.00;62.67;;;;;6.75;58.13;101416.16;5056135;28;45480;-53
2022/03/06 03:34:29;;;;;;;;;81.67;60.00;;;;;6.69;57.50;101417.72;5056350;28;45511;-51
2022/03/06 03:36:55;;;;;;;;;77.67;62.00;;;;;6.54;58.47;101400.28;5056079;28;45355;-50
2022/03/06 03:39:20;;;;;;;;;77.00;61.00;;;;;6.08;57.80;101336.16;5055904;28;46364;-53
2022/03/06 03:41:46;;;;;;;;;71.33;57.67;;;;;6.50;58.32;101403.38;5054756;28;45340;-52
2022/03/06 03:44:11;;;;;;;;;80.00;61.00;;;;;6.50;57.88;101386.13;5056368;28;45308;-55
2022/03/06 03:46:37;;;;;;;;;81.33;64.33;;;;;6.73;57.48;101440.88;5055968;28;45348;-52
2022/03/06 03:49:03;;;;;;;;;76.67;56.67;;;;;6.48;57.83;101421.78;5055901;28;46056;-49
2022/03/06 03:51:29;;;;;;;;;78.67;60.00;;;;;6.49;57.97;101438.97;5055845;28;45401;-55
2022/03/06 03:53:54;;;;;;;;;84.67;65.00;;;;;6.53;57.68;101448.53;5055567;28;45555;-55
2022/03/06 03:56:21;;;;;;;;;73.00;56.67;;;;;6.33;58.19;101421.56;5055888;28;45584;-51
2022/03/06 03:58:47;;;;;;;;;80.67;63.33;;;;;6.28;57.80;101423.94;5088068;27;47628;-51
2022/03/06 04:01:12;;;;;;;;;73.00;57.33;;;;;6.26;58.23;101415.09;5054272;28;45373;-52
2022/03/06 04:03:37;;;;;;;;;77.00;62.00;;;;;6.50;58.37;101457.91;5017835;27;45414;-52
2022/03/06 04:06:03;;;;;;;;;73.00;59.00;;;;;6.51;57.92;101456.03;5069053;28;45428;-52
2022/03/06 04:08:29;;;;;;;;;83.00;62.67;;;;;6.39;58.51;101441.03;5055263;28;46060;-56
2022/03/06 04:10:56;;;;;;;;;80.00;60.33;;;;;6.22;57.84;101436.38;5055398;28;45388;-50
2022/03/06 04:13:23;;;;;;;;;75.00;57.00;;;;;6.44;58.27;101458.56;5054271;28;45374;-53
2022/03/06 04:15:48;;;;;;;;;72.00;56.67;;;;;6.22;58.11;101443.69;5037579;28;45961;-53
2022/03/06 04:18:14;;;;;;;;;76.00;59.33;;;;;6.33;58.88;101464.34;5054086;28;46429;-50
2022/03/06 04:20:39;;;;;;;;;80.67;61.00;;;;;6.38;58.66;101470.16;5054394;28;45318;-52
2022/03/06 04:23:05;;;;;;;;;78.00;59.00;;;;;6.39;58.45;101471.03;5055744;28;45296;-56
2022/03/06 04:25:30;;;;;;;;;85.67;61.00;;;;;6.40;58.68;101468.09;5055650;28;45520;-54
2022/03/06 04:27:56;;;;;;;;;76.67;61.00;;;;;6.39;58.74;101469.13;5055321;28;46006;-56
2022/03/06 04:30:22;;;;;;;;;73.33;57.33;;;;;6.40;58.27;101470.84;5055316;28;45368;-54
2022/03/06 04:32:47;;;;;;;;;79.67;62.00;;;;;6.40;58.51;101472.72;5055239;28;45370;-50
2022/03/06 04:35:13;;;;;;;;;81.33;61.67;;;;;6.32;58.76;101466.22;5055375;28;45663;-54
2022/03/06 04:37:38;;;;;;;;;86.00;61.33;;;;;6.23;59.35;101476.25;5053334;28;46560;-54
2022/03/06 04:40:04;;;;;;;;;82.00;63.00;;;;;6.28;59.38;101480.34;5055203;28;45450;-51
2022/03/06 04:42:29;;;;;;;;;81.67;62.67;;;;;5.98;59.02;101448.03;5054911;28;45369;-52
2022/03/06 04:44:55;;;;;;;;;85.33;64.33;;;;;6.22;58.68;101484.59;5055260;28;45351;-51
2022/03/06 04:47:20;;;;;;;;;78.33;60.00;;;;;6.14;59.72;101485.41;5054814;28;46259;-53
2022/03/06 04:49:46;;;;;;;;;80.33;63.67;;;;;5.94;59.11;101454.81;5055141;28;45359;-53
2022/03/06 04:52:11;;;;;;;;;84.00;65.00;;;;;6.10;60.03;101495.78;5054827;28;45358;-51
2022/03/06 04:54:37;;;;;;;;;85.00;63.33;;;;;6.01;59.43;101499.47;5055155;28;45267;-51
2022/03/06 04:57:04;;;;;;;;;83.33;64.33;;;;;6.08;59.74;101492.38;5054398;28;45464;-50
2022/03/06 04:59:29;;;;;;;;;81.67;61.33;;;;;6.02;59.89;101468.50;5054694;28;45283;-54
2022/03/06 05:01:55;;;;;;;;;81.33;64.00;;;;;6.11;59.61;101483.00;5054922;28;45422;-53
2022/03/06 05:04:20;;;;;;;;;84.33;62.33;;;;;5.97;59.28;101496.22;5055209;28;45642;-52
2022/03/06 05:06:46;;;;;;;;;78.00;59.00;;;;;5.84;60.08;101496.63;5053002;28;46290;-52
2022/03/06 05:09:12;;;;;;;;;82.67;63.67;;;;;5.55;61.08;101456.16;5054556;28;45366;-51
2022/03/06 05:11:37;;;;;;;;;80.67;63.00;;;;;5.67;60.46;101475.78;5054482;28;45437;-50
2022/03/06 05:14:03;;;;;;;;;77.67;62.00;;;;;5.81;59.90;101487.94;5053698;28;45397;-56
2022/03/06 05:16:28;;;;;;;;;78.00;62.00;;;;;5.84;60.62;101493.91;5054444;28;46042;-54
2022/03/06 05:18:54;;;;;;;;;73.33;57.67;;;;;5.79;60.26;101501.75;5057586;28;45417;-53
2022/03/06 05:21:20;;;;;;;;;82.00;62.33;;;;;5.62;60.63;101502.66;5058263;28;45484;-53
2022/03/06 05:23:45;;;;;;;;;83.33;61.67;;;;;5.66;59.92;101495.88;5058439;28;45552;-51
2022/03/06 05:26:10;;;;;;;;;83.00;63.33;;;;;5.70;61.22;101502.69;5058280;28;45790;-55
2022/03/06 05:28:36;;;;;;;;;80.67;61.00;;;;;5.72;60.28;101505.25;5057864;28;45392;-49
2022/03/06 05:31:02;;;;;;;;;89.00;64.33;;;;;5.72;59.95;101506.13;5057993;27;45317;-48
2022/03/06 05:33:27;;;;;;;;;70.33;58.67;;;;;5.61;60.11;101487.31;5057969;28;45434;-53
2022/03/06 05:35:52;;;;;;;;;76.00;58.67;;;;;5.77;60.58;101506.47;5057565;28;46397;-55
2022/03/06 05:38:18;;;;;;;;;82.33;62.00;;;;;5.79;60.50;101501.75;5090588;27;45420;-53
2022/03/06 05:40:44;;;;;;;;;86.67;64.67;;;;;5.71;59.80;101498.94;5058265;28;45400;-54
2022/03/06 05:43:09;;;;;;;;;82.67;61.00;;;;;5.81;61.00;101507.00;5056773;28;45358;-52
2022/03/06 05:45:35;;;;;;;;;82.00;63.67;;;;;5.73;60.01;101504.25;5057561;28;45376;-51
2022/03/06 05:48:01;;;;;;;;;81.33;62.33;;;;;5.82;59.83;101512.31;5057737;28;45258;-53
2022/03/06 05:50:26;;;;;;;;;83.00;61.67;;;;;5.68;59.51;101502.00;5073590;28;45494;-55
2022/03/06 05:52:52;;;;;;;;;72.33;58.67;;;;;5.66;60.61;101515.78;5057405;28;45572;-51
2022/03/06 05:55:17;;;;;;;;;84.67;64.33;;;;;5.75;59.92;101505.78;5057885;28;46153;-52
2022/03/06 05:57:44;;;;;;;;;88.33;66.33;;;;;5.82;60.18;101511.47;5057487;28;45392;-52
2022/03/06 06:00:10;;;;;;;;;79.00;62.33;;;;;5.72;60.41;101522.47;5056362;28;45428;-53
2022/03/06 06:02:37;;;;;;;;;73.67;60.67;;;;;5.61;60.15;101518.13;5056119;28;45469;-49
2022/03/06 06:05:06;;;;;;;;;79.33;63.00;;;;;5.45;60.58;101528.91;5056127;28;45401;-48
2022/03/06 06:07:32;;;;;;;;;86.33;63.67;;;;;5.48;61.28;101524.00;5030225;28;45519;-50
2022/03/06 06:09:58;;;;;;;;;82.33;64.33;;;;;5.48;61.11;101528.59;5056110;28;45469;-51
2022/03/06 06:12:23;;;;;;;;;80.67;63.00;;;;;5.45;60.46;101521.63;5056440;28;45457;-53
2022/03/06 06:14:49;;;;;;;;;80.67;60.67;;;;;5.40;61.63;101534.84;5057195;28;45402;-51
2022/03/06 06:17:14;;;;;;;;;85.67;65.00;;;;;5.38;61.04;101520.50;5057143;28;45360;-49
2022/03/06 06:19:40;;;;;;;;;88.33;63.00;;;;;5.17;61.55;101497.22;5057385;28;45447;-51
2022/03/06 06:22:05;;;;;;;;;86.33;66.67;;;;;5.40;61.51;101535.69;5057066;28;45349;-49
2022/03/06 06:24:31;;;;;;;;;77.33;61.67;;;;;5.51;61.55;101526.41;5056977;28;45457;-50
2022/03/06 06:26:56;;;;;;;;;89.00;64.67;;;;;5.60;60.08;101534.66;5055751;28;45282;-53
2022/03/06 06:29:23;;;;;;;;;88.33;65.67;;;;;5.51;59.68;101526.41;5056771;28;45365;-54
2022/03/06 06:31:49;;;;;;;;;85.00;63.33;;;;;5.52;60.76;101541.75;5057416;28;45558;-52
2022/03/06 06:34:15;;;;;;;;;84.67;63.00;;;;;5.62;60.56;101540.78;5056650;28;46468;-53
2022/03/06 06:36:41;;;;;;;;;81.67;63.00;;;;;5.59;60.76;101544.69;5056673;28;45332;-51
2022/03/06 06:39:09;;;;;;;;;84.00;64.33;;;;;5.63;60.44;101545.22;5056866;28;45345;-51
2022/03/06 06:41:36;;;;;;;;;77.00;61.00;;;;;5.62;60.32;101546.22;5057219;28;45420;-50
2022/03/06 06:44:02;;;;;;;;;78.67;63.67;;;;;5.61;60.08;101542.63;5056759;28;45834;-53
2022/03/06 06:46:27;;;;;;;;;82.67;62.67;;;;;5.63;60.00;101547.94;5055088;28;45223;-50
2022/03/06 06:48:53;;;;;;;;;85.33;64.00;;;;;5.60;60.31;101548.25;5056657;28;45360;-54
2022/03/06 06:51:18;;;;;;;;;89.67;66.33;;;;;5.50;60.53;101540.19;5057166;28;45352;-56
2022/03/06 06:53:44;;;;;;;;;82.33;61.33;;;;;5.66;60.36;101559.38;5056288;28;45361;-53
2022/03/06 06:56:09;;;;;;;;;87.67;64.67;;;;;5.66;60.10;101562.09;5057130;28;45287;-50
2022/03/06 06:58:35;;;;;;;;;86.00;66.67;;;;;5.49;60.25;101560.28;5056938;28;45430;-51
2022/03/06 07:01:00;;;;;;;;;85.33;64.67;;;;;5.15;60.90;101553.69;5056977;28;45401;-51
2022/03/06 07:03:26;;;;;;;;;77.67;58.00;;;;;5.13;60.56;101566.59;5056567;28;45688;-50
2022/03/06 07:05:51;;;;;;;;;90.67;66.67;;;;;4.84;60.93;101535.00;5057190;28;45347;-55
2022/03/06 07:08:17;;;;;;;;;83.00;63.33;;;;;5.01;61.40;101571.41;5032669;28;45484;-52
2022/03/06 07:10:42;;;;;;;;;86.00;65.00;;;;;4.99;61.21;101573.44;5056980;28;45392;-50
2022/03/06 07:13:08;;;;;;;;;85.67;64.67;;;;;4.88;61.79;101563.63;5056411;28;45354;-50
2022/03/06 07:15:34;;;;;;;;;91.00;66.67;;;;;4.86;61.55;101573.81;5056440;28;45325;-53
2022/03/06 07:18:00;;;;;;;;;89.00;66.00;;;;;4.99;61.55;101578.88;5056710;28;45291;-51
2022/03/06 07:20:26;;;;;;;;;86.00;67.00;;;;;5.10;61.11;101578.66;5038396;28;45457;-54
2022/03/06 07:22:52;;;;;;;;;82.33;63.67;;;;;5.20;60.72;101583.16;5055946;28;45300;-54
2022/03/06 07:25:17;;;;;;;;;87.33;67.33;;;;;5.13;60.86;101572.03;5056114;28;45337;-52
2022/03/06 07:27:43;;;;;;;;;83.00;64.33;;;;;5.18;60.82;101580.56;5055484;28;45311;-53
2022/03/06 07:30:09;;;;;;;;;83.67;65.00;;;;;5.16;60.30;101588.03;5055528;28;45435;-54
2022/03/06 07:32:45;;;;;;;;;84.33;63.33;;;;;5.03;60.21;101563.97;5056124;28;46478;-53
2022/03/06 07:35:10;;;;;;;;;83.67;61.67;;;;;5.20;60.73;101592.19;5056263;28;45378;-50
2022/03/06 07:37:36;;;;;;;;;87.33;62.00;;;;;4.66;60.70;101494.22;5056063;28;45214;-51
2022/03/06 07:40:02;;;;;;;;;82.00;65.00;;;;;5.23;59.44;101608.19;5054212;28;45413;-54
2022/03/06 07:42:27;;;;;;;;;89.33;64.33;;;;;5.22;59.13;101611.94;5054726;28;48535;-54
2022/03/06 07:44:53;;;;;;;;;90.00;65.00;;;;;5.21;60.50;101612.06;5056285;28;45989;-52
2022/03/06 07:47:18;;;;;;;;;82.67;63.67;;;;;5.11;60.68;101587.66;5054984;28;45428;-49
2022/03/06 07:49:44;;;;;;;;;90.33;70.00;;;;;5.34;60.25;101619.88;5054924;28;45416;-51
2022/03/06 07:52:09;;;;;;;;;83.33;64.33;;;;;5.40;59.81;101621.97;5056334;28;45956;-50
2022/03/06 07:54:35;;;;;;;;;90.67;68.33;;;;;5.23;59.71;101612.78;5055561;28;45345;-54
2022/03/06 07:57:00;;;;;;;;;88.67;64.33;;;;;4.88;58.86;101579.94;5054723;28;45397;-50
2022/03/06 07:59:28;;;;;;;;;82.33;61.33;;;;;4.97;58.93;101614.38;5055866;28;45436;-52
2022/03/06 08:01:54;;;;;;;;;84.33;63.33;;;;;5.17;59.40;101627.03;5054111;28;46435;-51
2022/03/06 08:04:19;;;;;;;;;84.33;63.33;;;;;5.24;59.88;101628.13;5054325;28;45242;-53
2022/03/06 08:06:46;;;;;;;;;85.33;62.33;;;;;5.19;59.74;101631.31;5055690;28;45331;-54
2022/03/06 08:09:12;;;;;;;;;84.00;64.33;;;;;5.07;60.03;101633.38;5037540;28;45402;-54
2022/03/06 08:11:37;;;;;;;;;87.00;65.00;;;;;4.97;59.95;101598.06;5054855;28;46295;-51
2022/03/06 08:14:03;;;;;;;;;84.67;65.00;;;;;5.23;59.90;101635.41;5055232;28;45471;-49
2022/03/06 08:16:28;;;;;;;;;89.33;65.00;;;;;5.24;60.08;101647.16;5054486;28;45449;-51
2022/03/06 08:18:54;;;;;;;;;81.67;62.33;;;;;5.30;59.27;101643.81;5055396;28;45482;-53
2022/03/06 08:21:19;;;;;;;;;80.67;61.00;;;;;5.46;60.07;101654.03;5055667;28;46115;-53
2022/03/06 08:23:45;;;;;;;;;85.33;65.67;;;;;5.45;58.34;101646.88;5054880;28;45419;-54
2022/03/06 08:26:10;;;;;;;;;83.67;62.00;;;;;5.31;59.09;101658.28;5055333;28;45387;-50
2022/03/06 08:28:36;;;;;;;;;79.67;59.00;;;;;4.99;58.79;101617.84;5054524;28;45511;-50
2022/03/06 08:31:01;;;;;;;;;79.00;60.00;;;;;5.03;58.22;101631.97;5053983;28;46484;-56
2022/03/06 08:33:27;;;;;;;;;85.67;63.00;;;;;5.21;57.96;101661.06;5045533;28;45912;-61
2022/03/06 08:35:52;;;;;;;;;84.33;65.67;;;;;5.23;57.92;101657.19;5050448;28;45516;-60
2022/03/06 08:38:18;;;;;;;;;84.00;63.33;;;;;5.22;57.60;101669.09;5051215;28;45370;-59
2022/03/06 08:40:44;;;;;;;;;72.67;57.33;;;;;5.11;58.52;101652.97;5050895;28;45855;-61
2022/03/06 08:43:09;;;;;;;;;85.67;63.00;;;;;5.20;57.94;101673.84;5049915;28;45400;-58
2022/03/06 08:45:36;;;;;;;;;84.00;65.00;;;;;5.17;58.53;101663.25;5051039;28;45493;-56
2022/03/06 08:48:03;;;;;;;;;80.00;61.00;;;;;5.19;58.08;101666.69;5066519;28;45758;-62
2022/03/06 08:50:28;;;;;;;;;78.00;62.00;;;;;5.16;57.53;101672.41;5051008;28;46349;-59
2022/03/06 08:52:54;;;;;;;;;80.33;63.00;;;;;5.06;58.09;101637.09;5048599;28;45473;-61
2022/03/06 08:55:25;;;;;;;;;83.67;63.00;;;;;5.34;57.83;101664.25;5049944;28;45504;-59
2022/03/06 08:57:54;;;;;;;;;84.00;63.00;;;;;5.39;57.23;101651.06;5033273;28;45403;-63
2022/03/06 09:00:19;;;;;;;;;81.67;60.33;;;;;5.32;56.96;101638.22;5033253;28;45481;-59
2022/03/06 09:02:45;;;;;;;;;71.00;56.00;;;;;5.58;56.81;101660.09;5082865;27;45485;-59
2022/03/06 09:05:11;;;;;;;;;74.75;57.25;;;;;5.40;55.60;101624.69;5026964;27;45457;-61
2022/03/06 09:07:36;;;;;;;;;82.33;64.33;;;;;5.70;56.81;101671.56;5042715;28;46080;-57
2022/03/06 09:10:03;;;;;;;;;76.33;60.00;;;;;5.56;55.78;101635.72;5050160;28;46296;-54
2022/03/06 09:12:28;;;;;;;;;78.00;60.67;;;;;5.80;54.14;101672.38;5047179;28;45418;-52
2022/03/06 09:14:54;;;;;;;;;83.00;61.33;;;;;5.66;55.56;101665.59;5047476;28;45383;-56
2022/03/06 09:17:20;;;;;;;;;75.33;61.00;;;;;5.86;55.78;101664.59;5031270;28;45475;-57
2022/03/06 09:19:46;;;;;;;;;76.67;57.67;;;;;6.00;55.00;101665.84;5047040;28;45863;-56
2022/03/06 09:22:11;;;;;;;;;73.67;57.33;;;;;6.05;53.36;101663.56;5047549;28;45421;-60
2022/03/06 09:24:37;;;;;;;;;70.00;54.67;;;;;6.02;53.51;101664.72;5050993;28;45875;-56
2022/03/06 09:27:03;;;;;;;;;43.00;32.25;;;;;6.17;54.37;101667.72;5050570;28;45488;-57
2022/03/06 09:29:28;;;;;;;;;78.00;56.50;;;;;6.25;52.94;101672.38;5048608;28;46329;-55
2022/03/06 09:31:54;;;;;;;;;72.75;54.25;;;;;6.26;52.82;101667.78;5048860;28;45418;-56
2022/03/06 09:34:19;;;;;;;;;77.75;58.50;;;;;6.37;52.37;101670.25;5065773;28;45582;-55
2022/03/06 09:36:46;;;;;;;;;68.25;57.00;;;;;6.44;52.05;101664.97;5050587;28;45653;-57
2022/03/06 09:39:13;;;;;;;;;72.75;55.00;;;;;6.42;51.34;101670.63;5049960;28;45529;-59
2022/03/06 09:41:38;;;;;;;;;69.50;53.00;;;;;6.53;52.15;101682.25;4993748;28;46586;-56
2022/03/06 09:44:08;;;;;;;;;69.00;53.75;;;;;6.56;51.10;101687.41;5052840;28;45579;-51
2022/03/06 09:46:35;;;;;;;;;60.50;48.00;;;;;6.55;49.33;101686.53;5053898;28;45338;-49
2022/03/06 09:49:01;;;;;;;;;71.00;50.50;;;;;6.63;50.29;101688.44;4991786;27;46279;-48
2022/03/06 09:51:26;;;;;;;;;60.50;45.00;;;;;6.74;50.16;101690.88;5037048;27;45507;-54
2022/03/06 09:53:52;;;;;;;;;65.25;52.00;;;;;6.79;49.29;101695.88;5051281;28;45307;-55
2022/03/06 09:56:17;;;;;;;;;67.00;53.25;;;;;6.77;48.76;101678.78;5053307;28;45575;-50
2022/03/06 09:58:43;;;;;;;;;71.00;53.00;;;;;6.80;49.18;101685.78;5052890;28;45983;-50
2022/03/06 10:01:09;;;;;;;;;65.75;50.75;;;;;6.76;49.04;101682.53;5053036;28;45257;-52
2022/03/06 10:03:37;;;;;;;;;71.75;50.75;;;;;6.89;47.72;101690.28;5055317;28;45189;-49
2022/03/06 10:06:07;;;;;;;;;69.25;53.00;;;;;6.93;46.71;101694.38;5038953;28;45502;-51
2022/03/06 10:08:32;;;;;;;;;62.75;48.50;;;;;7.06;46.38;101696.66;5057206;28;45799;-51
2022/03/06 10:11:00;;;;;;;;;65.00;48.50;;;;;6.95;46.28;101651.41;5037010;28;45628;-51
2022/03/06 10:13:31;;;;;;;;;59.25;47.75;;;;;6.94;45.95;101627.84;5071381;28;45419;-50
2022/03/06 10:16:08;;;;;;;;;52.00;44.25;;;;;7.43;44.92;101692.66;5056158;28;45933;-51
2022/03/06 10:18:38;;;;;;;;;59.00;46.00;;;;;7.41;44.76;101664.66;5052108;28;46988;-49
2022/03/06 10:21:17;;;;;;;;;57.80;44.80;;;;;7.71;45.04;101686.91;5036267;28;45424;-50
2022/03/06 10:23:43;;;;;;;;;59.20;42.00;;;;;7.37;45.16;101611.38;5035823;28;45404;-53
2022/03/06 10:26:19;;;;;;;;;50.50;41.00;;;;;7.97;42.04;101685.88;5036500;28;45283;-53
2022/03/06 10:28:51;;;;;;;;;56.80;42.60;;;;;8.01;41.06;101686.38;5037110;28;45545;-51
2022/03/06 10:31:17;;;;;;;;;53.60;42.60;;;;;8.12;42.87;101686.00;5037452;28;45444;-51
2022/03/06 10:34:08;;;;;;;;;54.50;40.75;;;;;8.36;43.14;101678.81;5037438;28;45264;-53
2022/03/06 10:36:44;;;;;;;;;40.50;37.75;;;;;8.53;42.98;101676.91;5037114;28;45632;-52
2022/03/06 10:39:09;;;;;;;;;50.80;40.20;;;;;8.31;38.90;101653.84;5035958;28;47494;-55
2022/03/06 10:41:42;;;;;;;;;53.25;41.75;;;;;8.44;39.98;101677.94;5037066;28;45343;-51
2022/03/06 10:44:09;;;;;;;;;44.00;37.40;;;;;8.28;40.74;101638.63;5036104;28;45409;-54
2022/03/06 10:46:36;;;;;;;;;44.60;32.80;;;;;8.47;38.51;101652.97;5037125;28;45604;-53
2022/03/06 10:49:12;;;;;;;;;44.40;30.40;;;;;8.84;39.60;101680.75;5035874;28;46110;-57
2022/03/06 10:51:49;;;;;;;;;36.40;33.80;;;;;9.01;38.69;101683.41;5026031;28;45498;-54
2022/03/06 10:54:16;;;;;;;;;39.60;34.00;;;;;8.90;37.18;101663.59;5035523;28;45366;-54
2022/03/06 10:56:43;;;;;;;;;38.20;31.80;;;;;8.93;37.47;101657.75;5036496;28;45551;-53
2022/03/06 10:59:09;;;;;;;;;41.20;31.00;;;;;9.02;36.08;101664.06;5036581;28;46373;-51
2022/03/06 11:01:35;;;;;;;;;31.75;28.75;;;;;9.17;35.45;101682.47;5052931;28;45445;-53
2022/03/06 11:04:04;;;;;;;;;35.25;28.75;;;;;9.15;35.65;101690.00;5056922;28;45364;-52
2022/03/06 11:06:35;;;;;;;;;32.40;26.20;;;;;9.03;37.43;101646.59;5056525;28;45320;-53
2022/03/06 11:09:01;;;;;;;;;31.40;27.60;;;;;9.42;35.10;101676.84;5018919;28;46654;-50
2022/03/06 11:11:26;;;;;;;;;28.75;25.50;;;;;9.48;35.97;101676.97;5032426;28;45429;-51